createdAt,value
2024-02-23T00:01:58.846Z,8.50
2024-02-23T00:04:31.105Z,7.30
2024-02-23T00:07:04.574Z,7.00
2024-02-23T00:09:36.925Z,6.40
2024-02-23T00:12:10.885Z,7.10
2024-02-23T00:14:43.189Z,7.60
2024-02-23T00:17:15.408Z,7.70
2024-02-23T00:19:50.376Z,7.20
2024-02-23T00:22:22.601Z,7.60
2024-02-23T00:24:54.737Z,8.00
2024-02-23T00:27:28.537Z,6.10
2024-02-23T00:30:00.667Z,7.30
2024-02-23T00:32:33.017Z,6.60
2024-02-23T00:35:05.573Z,7.30
2024-02-23T00:37:37.623Z,7.70
2024-02-23T00:40:11.979Z,6.40
2024-02-23T00:42:44.165Z,7.50
2024-02-23T00:45:16.306Z,8.80
2024-02-23T00:47:49.299Z,6.60
2024-02-23T00:50:22.164Z,6.50
2024-02-23T00:52:54.605Z,6.50
2024-02-23T00:55:28.022Z,7.00
2024-02-23T00:58:00.559Z,7.00
2024-02-23T01:00:33.600Z,7.10
2024-02-23T01:03:06.433Z,6.90
2024-02-23T01:05:39.624Z,8.30
2024-02-23T01:08:12.124Z,6.30
2024-02-23T01:10:44.324Z,7.00
2024-02-23T01:13:16.380Z,6.80
2024-02-23T01:15:48.810Z,8.20
2024-02-23T01:18:20.927Z,6.50
2024-02-23T01:20:53.133Z,6.90
2024-02-23T01:23:25.717Z,7.10
2024-02-23T01:26:00.085Z,7.30
2024-02-23T01:28:32.310Z,6.90
2024-02-23T01:31:05.454Z,7.50
2024-02-23T01:33:37.869Z,7.60
2024-02-23T01:36:11.220Z,6.70
2024-02-23T01:38:44.195Z,5.50
2024-02-23T01:41:16.408Z,6.70
2024-02-23T01:43:48.639Z,6.30
2024-02-23T01:46:21.703Z,6.10
2024-02-23T01:48:53.931Z,5.60
2024-02-23T01:51:26.699Z,6.50
2024-02-23T01:53:59.439Z,6.20
2024-02-23T01:56:32.224Z,7.30
2024-02-23T01:59:06.862Z,4.70
2024-02-23T02:01:39.088Z,6.70
2024-02-23T02:04:11.523Z,5.00
2024-02-23T02:06:44.207Z,6.10
2024-02-23T02:09:16.438Z,5.00
2024-02-23T02:11:52.520Z,5.30
2024-02-23T02:14:24.937Z,6.40
2024-02-23T02:16:57.141Z,5.00
2024-02-23T02:19:29.422Z,5.20
2024-02-23T02:22:01.680Z,5.00
2024-02-23T02:24:34.490Z,5.20
2024-02-23T02:27:07.834Z,5.30
2024-02-23T02:29:40.396Z,6.00
2024-02-23T02:32:12.462Z,4.30
2024-02-23T02:34:44.814Z,5.20
2024-02-23T02:37:17.084Z,5.40
2024-02-23T02:39:49.235Z,5.10
2024-02-23T02:42:21.694Z,6.90
2024-02-23T02:44:53.792Z,5.90
2024-02-23T02:47:26.016Z,4.90
2024-02-23T02:49:58.350Z,5.60
2024-02-23T02:52:30.493Z,6.40
2024-02-23T02:55:02.837Z,4.80
2024-02-23T02:57:34.944Z,4.80
2024-02-23T03:00:12.174Z,5.80
2024-02-23T03:02:44.313Z,5.80
2024-02-23T03:05:16.670Z,6.10
2024-02-23T03:07:49.173Z,4.20
2024-02-23T03:10:21.226Z,5.00
2024-02-23T03:12:53.553Z,6.40
2024-02-23T03:15:25.711Z,5.10
2024-02-23T03:17:59.530Z,5.60
2024-02-23T03:20:31.716Z,5.00
2024-02-23T03:23:04.884Z,6.60
2024-02-23T03:25:37.148Z,5.10
2024-02-23T03:28:09.880Z,6.00
2024-02-23T03:30:42.002Z,6.00
2024-02-23T03:33:14.213Z,5.90
2024-02-23T03:35:46.695Z,4.70
2024-02-23T03:38:18.968Z,5.60
2024-02-23T03:40:51.294Z,6.90
2024-02-23T03:43:23.872Z,4.60
2024-02-23T03:45:56.031Z,5.80
2024-02-23T03:48:28.488Z,5.00
2024-02-23T03:51:00.717Z,5.70
2024-02-23T03:53:32.900Z,6.40
2024-02-23T03:56:05.243Z,6.10
2024-02-23T03:58:37.484Z,5.70
2024-02-23T04:01:09.852Z,5.00
2024-02-23T04:03:42.186Z,5.30
2024-02-23T04:06:14.470Z,6.40
2024-02-23T04:08:48.961Z,5.50
2024-02-23T04:11:22.608Z,5.60
2024-02-23T04:13:54.909Z,5.20
2024-02-23T04:16:28.743Z,4.80
2024-02-23T04:19:01.497Z,6.30
2024-02-23T04:21:33.809Z,7.80
2024-02-23T04:24:06.089Z,5.00
2024-02-23T04:26:38.462Z,5.60
2024-02-23T04:29:10.886Z,5.50
2024-02-23T04:31:42.908Z,5.80
2024-02-23T04:34:17.359Z,4.50
2024-02-23T04:36:49.424Z,5.40
2024-02-23T04:39:21.731Z,4.60
2024-02-23T04:41:55.120Z,4.80
2024-02-23T04:44:27.600Z,5.30
2024-02-23T04:46:59.742Z,5.00
2024-02-23T04:49:31.940Z,6.00
2024-02-23T04:52:04.071Z,6.50
2024-02-23T04:54:36.150Z,5.30
2024-02-23T04:57:08.501Z,4.70
2024-02-23T04:59:40.667Z,4.90
2024-02-23T05:02:12.942Z,5.20
2024-02-23T05:04:45.405Z,5.90
2024-02-23T05:07:17.538Z,4.40
2024-02-23T05:09:49.773Z,5.80
2024-02-23T05:12:21.974Z,4.80
2024-02-23T05:14:54.594Z,5.20
2024-02-23T05:17:26.803Z,6.30
2024-02-23T05:19:59.089Z,3.80
2024-02-23T05:22:31.238Z,6.40
2024-02-23T05:25:04.787Z,5.60
2024-02-23T05:27:37.406Z,6.10
2024-02-23T05:30:11.813Z,4.60
2024-02-23T05:32:44.293Z,6.90
2024-02-23T05:35:16.874Z,6.60
2024-02-23T05:37:49.150Z,6.50
2024-02-23T05:40:21.792Z,5.50
2024-02-23T05:42:53.974Z,6.80
2024-02-23T05:45:26.111Z,9.30
2024-02-23T05:47:58.386Z,8.40
2024-02-23T05:50:30.595Z,11.30
2024-02-23T05:53:02.780Z,6.50
2024-02-23T05:55:35.019Z,7.30
2024-02-23T05:58:07.347Z,5.80
2024-02-23T06:00:40.129Z,5.20
2024-02-23T06:03:12.313Z,6.20
2024-02-23T06:05:44.668Z,6.30
2024-02-23T06:08:17.029Z,8.90
2024-02-23T06:10:49.336Z,6.80
2024-02-23T06:13:21.676Z,5.80
2024-02-23T06:15:55.076Z,4.90
2024-02-23T06:18:27.184Z,6.50
2024-02-23T06:20:59.405Z,5.10
2024-02-23T06:23:31.929Z,6.60
2024-02-23T06:26:04.286Z,6.40
2024-02-23T06:28:38.358Z,5.60
2024-02-23T06:31:11.287Z,4.80
2024-02-23T06:33:43.613Z,4.90
2024-02-23T06:36:15.829Z,5.20
2024-02-23T06:38:48.129Z,6.10
2024-02-23T06:41:20.463Z,7.00
2024-02-23T06:43:53.570Z,6.90
2024-02-23T06:46:25.699Z,6.80
2024-02-23T06:48:58.400Z,5.90
2024-02-23T06:51:31.107Z,6.70
2024-02-23T06:54:04.968Z,6.60
2024-02-23T06:56:37.678Z,6.90
2024-02-23T06:59:09.793Z,7.00
2024-02-23T07:01:52.155Z,5.30
2024-02-23T07:04:24.725Z,6.30
2024-02-23T07:06:57.390Z,6.10
2024-02-23T07:09:29.719Z,7.70
2024-02-23T07:12:02.338Z,7.30
2024-02-23T07:14:34.721Z,8.40
2024-02-23T07:17:07.124Z,7.40
2024-02-23T07:19:39.399Z,8.40
2024-02-23T07:22:11.625Z,6.40
2024-02-23T07:24:45.122Z,7.10
2024-02-23T07:27:17.286Z,6.00
2024-02-23T07:29:49.458Z,9.20
2024-02-23T07:32:21.834Z,7.30
2024-02-23T07:34:54.614Z,9.10
2024-02-23T07:37:28.167Z,7.70
2024-02-23T07:40:00.535Z,9.90
2024-02-23T07:42:32.883Z,9.60
2024-02-23T07:45:05.541Z,15.10
2024-02-23T07:47:37.901Z,19.00
2024-02-23T07:50:11.409Z,20.90
2024-02-23T07:52:43.868Z,20.10
2024-02-23T07:55:17.521Z,18.10
2024-02-23T07:57:49.913Z,18.80
2024-02-23T08:00:24.462Z,30.40
2024-02-23T08:05:30.726Z,39.10
2024-02-23T08:08:03.076Z,14.60
2024-02-23T08:10:35.380Z,8.40
2024-02-23T08:13:07.997Z,6.20
2024-02-23T08:15:40.253Z,6.30
2024-02-23T08:18:12.798Z,7.80
2024-02-23T08:20:45.069Z,7.10
2024-02-23T08:23:17.321Z,7.40
2024-02-23T08:25:49.543Z,6.30
2024-02-23T08:28:21.890Z,7.20
2024-02-23T08:30:54.431Z,8.20
2024-02-23T08:33:26.593Z,7.60
2024-02-23T08:35:58.931Z,6.10
2024-02-23T08:38:31.559Z,6.30
2024-02-23T08:41:04.826Z,5.50
2024-02-23T08:43:37.361Z,6.50
2024-02-23T08:46:10.635Z,6.60
2024-02-23T08:48:43.398Z,6.00
2024-02-23T08:51:16.058Z,5.40
2024-02-23T08:53:48.258Z,5.90
2024-02-23T08:56:20.515Z,5.00
2024-02-23T08:58:52.882Z,6.10
2024-02-23T09:01:25.240Z,7.00
2024-02-23T09:03:57.627Z,6.50
2024-02-23T09:06:30.255Z,6.00
2024-02-23T09:09:02.813Z,5.90
2024-02-23T09:11:35.235Z,8.20
2024-02-23T09:14:07.776Z,7.00
2024-02-23T09:16:40.054Z,7.30
2024-02-23T09:19:12.449Z,6.00
2024-02-23T09:21:44.658Z,6.10
2024-02-23T09:24:17.360Z,7.70
2024-02-23T09:26:51.701Z,7.10
2024-02-23T09:29:23.984Z,5.80
2024-02-23T09:31:56.492Z,5.90
2024-02-23T09:34:28.836Z,5.80
2024-02-23T09:37:00.999Z,5.80
2024-02-23T09:39:33.148Z,5.00
2024-02-23T09:42:09.265Z,5.60
2024-02-23T09:47:13.250Z,4.70
2024-02-23T09:49:46.535Z,4.00
2024-02-23T09:52:19.739Z,4.70
2024-02-23T09:54:52.281Z,4.90
2024-02-23T09:57:25.509Z,3.90
2024-02-23T09:59:58.646Z,5.70
2024-02-23T10:02:32.963Z,5.10
2024-02-23T10:05:06.063Z,5.20
2024-02-23T10:07:38.784Z,4.70
2024-02-23T10:10:13.187Z,4.30
2024-02-23T10:12:46.126Z,4.40
2024-02-23T10:15:19.052Z,5.90
2024-02-23T10:17:51.346Z,5.20
2024-02-23T10:20:23.741Z,4.30
2024-02-23T10:22:56.651Z,5.10
2024-02-23T10:25:28.716Z,5.30
2024-02-23T10:28:01.317Z,5.10
2024-02-23T10:30:33.555Z,10.70
2024-02-23T10:33:07.684Z,10.10
2024-02-23T10:35:43.322Z,9.20
2024-02-23T10:38:19.542Z,7.20
2024-02-23T10:40:53.032Z,7.40
2024-02-23T10:43:32.413Z,5.90
2024-02-23T10:46:09.254Z,7.00
2024-02-23T10:48:43.347Z,4.50
2024-02-23T10:51:20.724Z,3.70
2024-02-23T10:53:57.392Z,5.40
2024-02-23T10:56:30.035Z,6.40
2024-02-23T10:59:02.609Z,6.80
2024-02-23T11:01:37.536Z,6.40
2024-02-23T11:04:12.411Z,5.70
2024-02-23T11:06:51.187Z,5.40
2024-02-23T11:09:27.321Z,6.70
2024-02-23T11:12:00.977Z,6.50
2024-02-23T11:14:38.115Z,6.00
2024-02-23T11:17:20.205Z,9.20
2024-02-23T11:19:56.705Z,6.30
2024-02-23T11:22:37.688Z,6.30
2024-02-23T11:25:12.433Z,7.00
2024-02-23T11:27:45.007Z,5.40
2024-02-23T11:30:21.627Z,4.90
2024-02-23T11:33:01.221Z,5.50
2024-02-23T11:35:33.756Z,5.00
2024-02-23T11:38:08.066Z,5.20
2024-02-23T11:40:41.052Z,5.40
2024-02-23T11:43:14.879Z,4.40
2024-02-23T11:45:49.315Z,4.40
2024-02-23T11:48:23.924Z,4.70
2024-02-23T11:50:57.994Z,4.90
2024-02-23T11:53:31.404Z,4.90
2024-02-23T11:56:04.232Z,5.30
2024-02-23T11:58:36.759Z,4.00
2024-02-23T12:01:09.086Z,6.30
2024-02-23T12:03:42.024Z,5.20
2024-02-23T12:06:16.745Z,5.80
2024-02-23T12:08:49.836Z,5.40
2024-02-23T12:11:22.266Z,4.90
2024-02-23T12:13:55.050Z,6.40
2024-02-23T12:16:28.087Z,21.50
2024-02-23T12:19:03.377Z,11.10
2024-02-23T12:21:38.580Z,9.80
2024-02-23T12:24:11.601Z,6.70
2024-02-23T12:26:43.767Z,8.30
2024-02-23T12:29:16.095Z,8.10
2024-02-23T12:31:48.423Z,7.50
2024-02-23T12:34:22.303Z,6.40
2024-02-23T12:36:54.483Z,6.20
2024-02-23T12:39:27.898Z,3.30
2024-02-23T12:42:00.202Z,5.90
2024-02-23T12:44:32.540Z,6.60
2024-02-23T12:47:05.138Z,5.40
2024-02-23T12:49:37.494Z,7.60
2024-02-23T12:52:10.078Z,7.20
2024-02-23T12:54:43.271Z,11.30
2024-02-23T12:57:15.589Z,9.40
2024-02-23T12:59:47.602Z,5.70
2024-02-23T13:02:20.308Z,7.00
2024-02-23T13:04:52.508Z,5.70
2024-02-23T13:07:24.579Z,3.80
2024-02-23T13:09:56.761Z,4.00
2024-02-23T13:12:29.089Z,4.20
2024-02-23T13:15:01.528Z,3.90
2024-02-23T13:17:33.983Z,2.80
2024-02-23T13:20:11.682Z,3.20
2024-02-23T13:22:44.448Z,2.90
2024-02-23T13:25:16.608Z,1.90
2024-02-23T13:27:48.713Z,2.70
2024-02-23T13:30:21.244Z,1.90
2024-02-23T13:32:54.483Z,1.90
2024-02-23T13:35:27.182Z,2.40
2024-02-23T13:37:59.420Z,2.90
2024-02-23T13:40:32.904Z,4.60
2024-02-23T13:43:05.341Z,6.90
2024-02-23T13:45:53.161Z,10.20
2024-02-23T13:48:25.511Z,14.10
2024-02-23T13:50:57.948Z,13.70
2024-02-23T13:53:30.275Z,8.90
2024-02-23T13:56:02.990Z,6.40
2024-02-23T13:58:35.306Z,3.70
2024-02-23T14:01:07.687Z,6.60
2024-02-23T14:03:40.217Z,4.00
2024-02-23T14:06:12.665Z,2.60
2024-02-23T14:08:45.568Z,3.90
2024-02-23T14:11:19.386Z,1.40
2024-02-23T14:13:52.215Z,3.90
2024-02-23T14:16:25.696Z,5.50
2024-02-23T14:18:57.979Z,7.80
2024-02-23T14:21:30.656Z,9.20
2024-02-23T14:24:03.019Z,9.90
2024-02-23T14:26:35.603Z,17.60
2024-02-23T14:29:07.866Z,19.50
2024-02-23T14:31:39.927Z,13.10
2024-02-23T14:34:12.176Z,20.60
2024-02-23T14:36:45.146Z,24.00
2024-02-23T14:39:17.391Z,27.80
2024-02-23T14:41:49.632Z,10.00
2024-02-23T14:44:22.447Z,10.90
2024-02-23T14:46:55.076Z,25.10
2024-02-23T14:49:27.504Z,68.30
2024-02-23T14:51:59.856Z,42.60
2024-02-23T14:54:32.037Z,29.70
2024-02-23T14:57:04.990Z,22.70
2024-02-23T14:59:42.737Z,14.70
2024-02-23T15:02:21.021Z,25.90
2024-02-23T15:04:53.393Z,21.80
2024-02-23T15:07:25.822Z,27.80
2024-02-23T15:09:58.066Z,19.70
2024-02-23T15:12:30.593Z,17.00
2024-02-23T15:15:04.818Z,17.30
2024-02-23T15:17:37.289Z,23.40
2024-02-23T15:20:12.395Z,21.20
2024-02-23T15:22:47.036Z,25.30
2024-02-23T15:25:19.574Z,22.00
2024-02-23T15:27:53.950Z,48.80
2024-02-23T15:30:26.817Z,55.60
2024-02-23T15:32:59.239Z,81.20
2024-02-23T15:35:31.483Z,64.70
2024-02-23T15:38:03.663Z,51.60
2024-02-23T15:40:35.801Z,28.40
2024-02-23T15:43:08.311Z,20.90
2024-02-23T15:45:40.436Z,17.90
2024-02-23T15:48:14.752Z,21.00
2024-02-23T15:51:06.452Z,19.10
2024-02-23T15:53:39.844Z,18.70
2024-02-23T15:56:12.561Z,20.90
2024-02-23T15:58:44.769Z,20.80
2024-02-23T16:01:17.078Z,18.80
2024-02-23T16:03:49.386Z,22.50
2024-02-23T16:06:21.772Z,23.10
2024-02-23T16:08:53.890Z,26.80
2024-02-23T16:11:26.203Z,22.20
2024-02-23T16:13:58.623Z,23.10
2024-02-23T16:16:30.986Z,28.20
2024-02-23T16:19:04.455Z,24.50
2024-02-23T16:21:38.802Z,25.50
2024-02-23T16:24:11.335Z,29.70
2024-02-23T16:26:43.532Z,34.20
2024-02-23T16:29:15.979Z,61.90
2024-02-23T16:31:48.267Z,76.90
2024-02-23T16:34:20.304Z,86.80
2024-02-23T16:36:52.416Z,69.90
2024-02-23T16:39:24.423Z,54.50
2024-02-23T16:41:56.781Z,52.90
2024-02-23T16:44:28.949Z,38.20
2024-02-23T16:47:01.139Z,41.30
2024-02-23T16:49:33.594Z,39.40
2024-02-23T16:52:06.242Z,34.40
2024-02-23T16:54:38.594Z,36.90
2024-02-23T16:57:11.575Z,36.30
2024-02-23T16:59:43.789Z,34.50
2024-02-23T17:02:16.047Z,55.20
2024-02-23T17:04:48.233Z,66.80
2024-02-23T17:07:20.793Z,64.30
2024-02-23T17:09:52.943Z,43.80
2024-02-23T17:12:25.714Z,32.60
2024-02-23T17:14:59.659Z,29.10
2024-02-23T17:17:31.894Z,27.80
2024-02-23T17:20:05.471Z,30.20
2024-02-23T17:22:38.099Z,33.50
2024-02-23T17:25:11.020Z,25.50
2024-02-23T17:27:43.248Z,22.10
2024-02-23T17:30:16.183Z,25.70
2024-02-23T17:32:48.627Z,21.60
2024-02-23T17:35:21.093Z,27.50
2024-02-23T17:37:53.352Z,31.60
2024-02-23T17:40:25.586Z,29.40
2024-02-23T17:42:58.083Z,43.00
2024-02-23T17:45:30.270Z,46.40
2024-02-23T17:48:02.925Z,42.50
2024-02-23T17:50:35.204Z,42.50
2024-02-23T17:53:07.686Z,41.10
2024-02-23T17:55:39.874Z,40.90
2024-02-23T17:58:19.671Z,40.20
2024-02-23T18:00:53.254Z,36.10
2024-02-23T18:03:25.500Z,35.20
2024-02-23T18:05:58.384Z,39.10
2024-02-23T18:08:30.568Z,34.00
2024-02-23T18:11:06.110Z,32.80
2024-02-23T18:13:40.899Z,35.60
2024-02-23T18:16:15.134Z,38.40
2024-02-23T18:18:47.795Z,43.60
2024-02-23T18:23:55.542Z,35.80
2024-02-23T18:26:27.720Z,38.10
2024-02-23T18:29:00.741Z,28.20
2024-02-23T18:31:33.156Z,29.30
2024-02-23T18:34:05.796Z,28.60
2024-02-23T18:36:38.098Z,29.80
2024-02-23T18:39:12.420Z,27.20
2024-02-23T18:41:44.806Z,25.30
2024-02-23T18:44:18.230Z,31.20
2024-02-23T18:46:51.292Z,34.50
2024-02-23T18:49:23.550Z,35.90
2024-02-23T18:51:55.753Z,35.50
2024-02-23T18:54:28.229Z,41.20
2024-02-23T18:57:00.661Z,29.90
2024-02-23T18:59:33.092Z,26.30
2024-02-23T19:02:05.639Z,30.00
2024-02-23T19:04:37.850Z,23.50
2024-02-23T19:07:10.026Z,25.00
2024-02-23T19:09:42.911Z,27.80
2024-02-23T19:12:16.243Z,23.20
2024-02-23T19:14:48.947Z,30.10
2024-02-23T19:17:24.336Z,33.80
2024-02-23T19:19:56.972Z,31.20
2024-02-23T19:22:29.602Z,25.30
2024-02-23T19:25:01.885Z,36.30
2024-02-23T19:27:37.305Z,29.50
2024-02-23T19:30:13.712Z,30.70
2024-02-23T19:32:46.191Z,31.60
2024-02-23T19:35:20.052Z,24.80
2024-02-23T19:37:52.165Z,25.50
2024-02-23T19:40:26.260Z,21.10
2024-02-23T19:42:58.553Z,20.20
2024-02-23T19:45:31.885Z,19.00
2024-02-23T19:48:04.184Z,20.60
2024-02-23T19:50:37.240Z,18.60
2024-02-23T19:53:11.492Z,23.70
2024-02-23T19:55:45.839Z,19.90
2024-02-23T19:58:19.564Z,20.90
2024-02-23T20:00:51.907Z,22.90
2024-02-23T20:03:24.288Z,30.60
2024-02-23T20:06:06.933Z,24.20
2024-02-23T20:08:40.639Z,24.60
2024-02-23T20:11:13.354Z,21.30
2024-02-23T20:13:47.888Z,19.40
2024-02-23T20:16:20.126Z,22.20
2024-02-23T20:18:52.553Z,18.80
2024-02-23T20:21:25.336Z,21.80
2024-02-23T20:24:00.495Z,21.20
2024-02-23T20:26:33.129Z,21.00
2024-02-23T20:29:08.782Z,23.90
2024-02-23T20:31:45.491Z,21.80
2024-02-23T20:34:18.791Z,22.80
2024-02-23T20:36:51.488Z,24.30
2024-02-23T20:39:25.898Z,20.00
2024-02-23T20:41:58.171Z,21.70
2024-02-23T20:44:30.956Z,26.60
2024-02-23T20:47:03.594Z,24.00
2024-02-23T20:49:36.404Z,22.90
2024-02-23T20:52:11.360Z,19.70
2024-02-23T20:54:47.770Z,22.30
2024-02-23T20:57:20.606Z,24.10
2024-02-23T20:59:53.210Z,25.60
2024-02-23T21:02:25.563Z,22.50
2024-02-23T21:04:58.237Z,22.50
2024-02-23T21:07:30.578Z,19.50
2024-02-23T21:10:03.641Z,21.90
2024-02-23T21:12:39.156Z,23.40
2024-02-23T21:15:12.548Z,26.10
2024-02-23T21:17:44.998Z,20.50
2024-02-23T21:20:18.651Z,22.20
2024-02-23T21:22:51.001Z,22.10
2024-02-23T21:25:23.277Z,21.70
2024-02-23T21:27:55.916Z,17.00
2024-02-23T21:30:28.353Z,19.10
2024-02-23T21:33:00.839Z,20.50
2024-02-23T21:35:35.731Z,21.00
2024-02-23T21:38:09.653Z,16.40
2024-02-23T21:40:42.040Z,18.00
2024-02-23T21:43:14.284Z,16.90
2024-02-23T21:45:46.540Z,19.10
2024-02-23T21:48:18.792Z,18.70
2024-02-23T21:50:51.373Z,19.00
2024-02-23T21:53:23.731Z,19.20
2024-02-23T21:55:56.511Z,20.60
2024-02-23T21:58:28.761Z,20.50
2024-02-23T22:01:01.366Z,16.60
2024-02-23T22:03:34.114Z,16.30
2024-02-23T22:06:07.428Z,19.60
2024-02-23T22:08:40.052Z,17.30
2024-02-23T22:11:12.357Z,20.80
2024-02-23T22:13:48.720Z,21.60
2024-02-23T22:16:20.924Z,21.00
2024-02-23T22:18:52.999Z,21.40
2024-02-23T22:21:25.356Z,22.20
2024-02-23T22:23:58.011Z,19.90
2024-02-23T22:26:33.679Z,25.20
2024-02-23T22:29:05.995Z,21.90
2024-02-23T22:31:38.363Z,25.30
2024-02-23T22:34:10.568Z,16.60
2024-02-23T22:36:43.984Z,22.60
2024-02-23T22:39:16.126Z,17.30
2024-02-23T22:41:48.484Z,18.00
2024-02-23T22:44:20.829Z,24.80
2024-02-23T22:46:55.792Z,23.10
2024-02-23T22:49:28.171Z,22.10
2024-02-23T22:52:00.375Z,24.50
2024-02-23T22:54:32.501Z,22.30
2024-02-23T22:57:05.076Z,21.10
2024-02-23T22:59:37.170Z,24.20
2024-02-23T23:02:09.503Z,18.90
2024-02-23T23:04:41.783Z,17.70
2024-02-23T23:07:14.059Z,18.90
2024-02-23T23:09:46.559Z,26.50
2024-02-23T23:12:18.831Z,23.80
2024-02-23T23:14:51.004Z,26.10
2024-02-23T23:17:23.204Z,26.60
2024-02-23T23:19:55.332Z,23.00
2024-02-23T23:22:27.744Z,20.50
2024-02-23T23:24:59.752Z,23.20
2024-02-23T23:27:32.026Z,21.60
2024-02-23T23:30:04.417Z,20.40
2024-02-23T23:32:36.782Z,23.10
2024-02-23T23:35:09.946Z,24.80
2024-02-23T23:37:42.846Z,22.60
2024-02-23T23:40:17.427Z,19.40
2024-02-23T23:42:49.635Z,25.00
2024-02-23T23:45:21.824Z,24.90
2024-02-23T23:47:54.142Z,20.90
2024-02-23T23:50:26.522Z,21.40
2024-02-23T23:52:58.693Z,17.10
2024-02-23T23:55:31.314Z,19.40
2024-02-23T23:58:04.359Z,20.10
